Terminal Aerodrome Forecast
Issued by NWS

Home | Current Version | Previous Version | Text Only | Print | Product List | Glossary On
Versions: 1 2 3 4 5 6 7 8 9 10 11 12 13 14 15 16 17 18 19 20 21 22 23 24 25 26 27 28 29 30 31 32
649
FTUS42 KKEY 241224 AAC
TAFMTH
TAF AMD
KMTH 241224Z 2412/2512 VRB05KT P6SM VCTS SCT020CB BKN200
      TEMPO 2412/2414 VRB20KT 2SM TSRA BR BKN018CB
     FM241400 VRB05KT P6SM -RA SCT025 BKN200
     FM241800 11005KT P6SM VCTS SCT020CB BKN050 BKN200=

USA.gov is the U.S. government's official web portal to all federal, state and local government web resources and services.